Airfield :
LOGIN :

Register | Disclaimer

   EN    FR    IT 

 










Legend :    VFR   Marginal VFR   IFR   Intensive IFR   Very Intensive IFR
Visi :
Ceiling :
>= 8 km
>= 3000ft
5 to 8 km
1000 to 3000 ft
1500m to 5 km
500 to 1000 ft
800 to 1500m
200 to 500 ft
< 800m
< 200 ft
Symbols :   Thunderstorms  Fog  Heavy snow  Heavy precipitations  Wind > 20 kt
SIGMETs :     Misc.  Thunderstorms  Icing  Turbulence  Mountain Waves  Volcanic Ashes







- Airport Elevation : 675 ft
- IATA code : RZE


EPRZ - Rzeszow-Jasionka

CURRENT METAR :
  • 131300Z VRB01KT CAVOK 04/M03 Q1016

EXPIRED METARs :
  • 131230Z VRB02KT 9999 FEW026 03/M04 Q1016
  • 131200Z 30005KT 260V340 9999 FEW026 03/M04 Q1016
  • 131130Z 32006KT 290V350 9999 FEW028 04/M04 Q1017
  • 131100Z 32007KT 290V360 9999 FEW028 04/M02 Q1017
  • 131030Z 32010KT 9999 SCT028 04/M02 Q1017

TAF TAF EPRZ
Valid from the 13 at 12:00 until the 14 at 12:00 UTC


131130Z 1312/1412 27007KT CAVOK
BECMG 1321/1324 18012KT
TEMPO 1406/1412 18015G25KT
No reported NOTAMs for that airfield.



MET'MAP, your aeronautical weather chart ! - Copyright ORBIFLY December 2007 - Disclaimer

ORBIFLY MET'MAP TEAM :

Programming & Development : Alexandra Zaïnal
Concept & Development : Baudouin d'Aumeries
Co-Development & Prog : Marc-Olivier Méhu
Technical & hardware support : Manuel Goepfert

Contact : metmap@orbifly.com




SOURCES & CREDITS :

   NOAA